Pungoteague, VA (23422)

4:50 PM EDT on September 02, 2014 (GMT -0400)
Davis Wharf | Change Station
CLOSE
Current Station
Personal Weather Station
Location: Belle Haven, VA
Elevation: 0 ft
Nearby Weather Stations

Elev 0 ft 37.55 °N, 75.88 °W | Updated 12 minutes ago

Clear
Clear
91.6 °F
Feels Like 101 °F
N
10.9
Wind Variable Wind from SW

Today
High -- | Low -- °F
--% Chance of Precip.
Yesterday
High -- | Low -- °F
Precip. -- in
6:34 AM 7:30 PM
First Quarter, 55% visible
Pressure 29.92 in
Visibility 10.0 miles
Clouds Clear
Heat Index 101 °F
Dew Point 74 °F
Humidity 56%
Rainfall 0.00 in
Snow Depth Not available.
UV 5 out of 12
Pollen 9.30 out of 12
Air Quality Not available.
Flu Activity Not available.
METAR KWAL 021954Z 20011KT 10SM CLR 33/25 A2992 RMK AO2 SLP130 T03280250

More Conditions Fewer Conditions

Pressure 29.92 in
Visibility 10.0 miles
Clouds Clear
Heat Index 101 °F
Dew Point 74 °F
Humidity 56%
Rainfall 0.00 in
Snow Depth Not available.
UV 5 out of 12
Pollen 9.30 out of 12
Air Quality Not available.
Flu Activity Not available.
METAR KWAL 021954Z 20011KT 10SM CLR 33/25 A2992 RMK AO2 SLP130 T03280250

More Conditions Fewer Conditions

10-Day Weather Forecast

Almanac

Astronomy

Sep. 02, 2014 Rise Set
Actual Time 6:34 AM EDT 7:30 PM EDT
Civil Twilight 6:07 AM EDT 7:57 PM EDT
Nautical Twilight 5:35 AM EDT 8:29 PM EDT
Astronomical Twilight 5:02 AM EDT 9:01 PM EDT
Moon 2:08 PM EDT No Moon Set
Length of Visible Light 13h 49m
Length of Day
12h 56m
Tomorrow will be 2m 20s shorter.
First Quarter, 55% of the Moon is Illuminated
Today
First Quarter
Sep 8
Full
Sep 15
Last Quarter
Sep 24
New
Oct 1
First Quarter

Today's Extremes

State Highs State Lows

Community

WunderPhotos

Upload Photos

1,749,763 photos uploaded!

WunderBlogs® & News

Nearby

Snow Depth

Station Depth Elevation
No new snow has been reported.

Earthquake Activity

City Distance Mag. Time & Date
No recent earthquake activity has been reported nearby.
Minimum magnitude displayed is 2.5.

Coastal Water Temperatures

Place Temperature
Kiptopeke, VA 84.0 °F
Yorktown, VA 81.0 °F
Wachapreague, VA 84.9 °F

Nearby Weather Stations